This is the latest recevied weather packets stored in our database for station/object VK3BYD-3. If no packets are shown the sender has not sent any weather packets the latest 10 day(s).
| Time | Temp. | Humidity | Pressure | Rain* | Wind** | Luminosity | Snow |
|---|---|---|---|---|---|---|---|
| 1777540339 | 14.44° C | 80% | 1025.8 hPa | 0 mm | - | - | - |
| 1777539436 | 14.44° C | 77% | 1025.6 hPa | 0 mm | - | - | - |
| 1777538536 | 15° C | 76% | 1025.6 hPa | 0 mm | - | - | - |
| 1777537633 | 15.56° C | 73% | 1025.4 hPa | 0 mm | - | - | - |
| 1777536729 | 16.67° C | 72% | 1025.6 hPa | 0 mm | - | - | - |
| 1777535828 | 17.22° C | 69% | 1025.3 hPa | 0 mm | - | - | - |
| 1777534927 | 18.33° C | 66% | 1025.4 hPa | 0 mm | - | - | - |
| 1777534025 | 20° C | 62% | 1025.6 hPa | 0 mm | - | - | - |
| 1777533125 | 21.67° C | 58% | 1025.6 hPa | 0 mm | - | - | - |
| 1777532225 | 22.78° C | 56% | 1025.6 hPa | 0 mm | - | - | - |
| 1777531324 | 23.33° C | 53% | 1025.6 hPa | 0 mm | - | - | - |
| 1777530424 | 25° C | 50% | 1025.5 hPa | 0 mm | - | - | - |
| 1777529524 | 26.11° C | 48% | 1025.5 hPa | 0 mm | - | - | - |
| 1777528631 | 26.11° C | 47% | 1025.6 hPa | 0 mm | - | - | - |
| 1777527728 | 26.67° C | 46% | 1025.6 hPa | 0 mm | - | - | - |
| 1777526824 | 27.22° C | 45% | 1025.7 hPa | 0 mm | - | - | - |
| 1777525925 | 26.67° C | 45% | 1025.7 hPa | 0 mm | - | - | - |
| 1777525024 | 27.22° C | 45% | 1025.8 hPa | 0 mm | - | - | - |
| 1777524125 | 26.67° C | 45% | 1025.8 hPa | 0 mm | - | - | - |
| 1777523224 | 26.67° C | 47% | 1025.8 hPa | 0 mm | - | - | - |
| 1777522322 | 26.11° C | 47% | 1026.1 hPa | 0 mm | - | - | - |
| 1777521423 | 26.11° C | 46% | 1026.2 hPa | 0 mm | - | - | - |
| 1777520522 | 25.56° C | 48% | 1026.3 hPa | 0 mm | - | - | - |
| 1777519616 | 25.56° C | 48% | 1026.4 hPa | 0 mm | - | - | - |
| 1777518716 | 25° C | 50% | 1026.6 hPa | 0 mm | - | - | - |
* Rain latest hour (hover to see other rain measurements)
** Current wind speed in m/s (hover to see current wind gust speed)